createdAt,value
2022-11-12T00:02:21.921Z,5.10
2022-11-12T00:05:10.273Z,3.63
2022-11-12T00:07:57.799Z,6.20
2022-11-12T00:10:45.120Z,5.10
2022-11-12T00:13:32.259Z,6.40
2022-11-12T00:16:19.850Z,4.80
2022-11-12T00:19:08.885Z,4.10
2022-11-12T00:21:56.249Z,4.77
2022-11-12T00:24:44.756Z,5.53
2022-11-12T00:27:35.297Z,6.00
2022-11-12T00:30:22.290Z,5.57
2022-11-12T00:33:09.349Z,4.23
2022-11-12T00:36:00.929Z,6.90
2022-11-12T00:38:47.918Z,4.50
2022-11-12T00:41:34.557Z,4.13
2022-11-12T00:44:21.645Z,4.47
2022-11-12T00:47:08.400Z,5.40
2022-11-12T00:49:55.258Z,5.30
2022-11-12T00:52:43.455Z,4.77
2022-11-12T00:55:30.228Z,6.20
2022-11-12T00:58:16.914Z,6.43
2022-11-12T01:01:08.569Z,5.23
2022-11-12T01:03:55.616Z,5.83
2022-11-12T01:06:42.204Z,4.33
2022-11-12T01:09:30.461Z,5.20
2022-11-12T01:12:17.304Z,3.70
2022-11-12T01:15:05.056Z,4.03
2022-11-12T01:17:51.954Z,4.50
2022-11-12T01:20:39.999Z,5.50
2022-11-12T01:23:26.909Z,5.07
2022-11-12T01:26:17.497Z,6.27
2022-11-12T01:29:04.795Z,4.67
2022-11-12T01:31:52.143Z,7.60
2022-11-12T01:34:38.933Z,5.57
2022-11-12T01:37:25.892Z,5.37
2022-11-12T01:40:13.042Z,6.80
2022-11-12T01:43:01.245Z,5.57
2022-11-12T01:45:52.175Z,6.07
2022-11-12T01:48:41.241Z,4.53
2022-11-12T01:51:33.830Z,4.37
2022-11-12T01:54:22.270Z,5.03
2022-11-12T01:57:12.254Z,5.03
2022-11-12T02:00:05.488Z,5.03
2022-11-12T02:02:56.100Z,4.70
2022-11-12T02:05:43.886Z,4.27
2022-11-12T02:08:31.976Z,5.10
2022-11-12T02:11:21.109Z,5.43
2022-11-12T02:14:07.696Z,5.40
2022-11-12T02:16:55.650Z,4.60
2022-11-12T02:19:42.680Z,4.47
2022-11-12T02:22:30.513Z,5.53
2022-11-12T02:25:20.787Z,5.67
2022-11-12T02:28:09.318Z,3.93
2022-11-12T02:30:55.875Z,4.03
2022-11-12T02:33:42.527Z,4.30
2022-11-12T02:36:29.669Z,4.27
2022-11-12T02:39:17.671Z,4.40
2022-11-12T02:42:05.150Z,5.10
2022-11-12T02:44:51.851Z,4.20
2022-11-12T02:47:38.671Z,6.47
2022-11-12T02:50:25.531Z,4.80
2022-11-12T02:53:12.262Z,4.47
2022-11-12T02:56:00.379Z,4.13
2022-11-12T02:58:47.159Z,3.73
2022-11-12T03:01:33.819Z,6.03
2022-11-12T03:04:20.789Z,5.47
2022-11-12T03:07:07.569Z,4.80
2022-11-12T03:09:54.402Z,6.00
2022-11-12T03:12:42.383Z,5.60
2022-11-12T03:15:30.921Z,4.97
2022-11-12T03:18:17.829Z,3.63
2022-11-12T03:21:04.825Z,9.10
2022-11-12T03:23:51.350Z,5.40
2022-11-12T03:26:38.333Z,5.43
2022-11-12T03:29:27.248Z,4.00
2022-11-12T03:32:13.672Z,6.50
2022-11-12T03:35:00.320Z,4.53
2022-11-12T03:37:46.947Z,4.67
2022-11-12T03:40:34.537Z,4.93
2022-11-12T03:43:21.066Z,4.37
2022-11-12T03:46:09.049Z,4.93
2022-11-12T03:48:55.379Z,3.93
2022-11-12T03:51:41.945Z,3.77
2022-11-12T03:54:29.028Z,3.83
2022-11-12T03:57:15.665Z,5.60
2022-11-12T04:00:02.223Z,4.33
2022-11-12T04:02:50.501Z,4.70
2022-11-12T04:05:54.578Z,4.17
2022-11-12T04:08:41.339Z,5.07
2022-11-12T04:11:27.902Z,6.07
2022-11-12T04:14:14.718Z,4.97
2022-11-12T04:17:18.642Z,6.20
2022-11-12T04:20:25.526Z,4.47
2022-11-12T04:23:12.158Z,5.90
2022-11-12T04:26:16.153Z,4.37
2022-11-12T04:29:20.127Z,5.13
2022-11-12T04:32:06.925Z,5.23
2022-11-12T04:34:54.124Z,6.67
2022-11-12T04:37:48.475Z,4.80
2022-11-12T04:40:52.905Z,6.53
2022-11-12T04:43:53.614Z,5.83
2022-11-12T04:46:40.291Z,6.90
2022-11-12T04:49:27.043Z,5.77
2022-11-12T04:52:13.771Z,6.93
2022-11-12T04:55:01.937Z,5.77
2022-11-12T04:57:49.085Z,5.47
2022-11-12T05:00:36.053Z,5.93
2022-11-12T05:03:22.674Z,4.80
2022-11-12T05:06:30.001Z,4.23
2022-11-12T05:09:16.701Z,4.90
2022-11-12T05:12:04.954Z,4.57
2022-11-12T05:14:51.688Z,5.47
2022-11-12T05:17:38.347Z,6.20
2022-11-12T05:20:24.971Z,5.20
2022-11-12T05:23:11.696Z,5.80
2022-11-12T05:25:58.286Z,5.83
2022-11-12T05:28:46.463Z,6.97
2022-11-12T05:31:33.613Z,5.70
2022-11-12T05:34:23.061Z,5.50
2022-11-12T05:37:11.010Z,6.40
2022-11-12T05:39:57.624Z,5.43
2022-11-12T05:42:45.633Z,6.07
2022-11-12T05:45:33.652Z,4.43
2022-11-12T05:48:24.257Z,4.97
2022-11-12T05:51:14.095Z,4.57
2022-11-12T05:54:02.710Z,4.47
2022-11-12T05:56:49.556Z,5.53
2022-11-12T05:59:36.114Z,4.57
2022-11-12T06:02:24.332Z,5.50
2022-11-12T06:05:11.223Z,4.37
2022-11-12T06:07:57.712Z,5.60
2022-11-12T06:10:44.422Z,5.07
2022-11-12T06:13:31.091Z,6.30
2022-11-12T06:16:17.855Z,6.00
2022-11-12T06:19:06.088Z,6.23
2022-11-12T06:21:52.743Z,5.50
2022-11-12T06:24:39.464Z,5.33
2022-11-12T06:27:26.317Z,5.63
2022-11-12T06:30:13.672Z,4.53
2022-11-12T06:33:00.255Z,4.40
2022-11-12T06:35:48.113Z,6.13
2022-11-12T06:38:36.387Z,4.97
2022-11-12T06:41:23.172Z,4.73
2022-11-12T06:44:10.084Z,5.70
2022-11-12T06:46:56.848Z,5.70
2022-11-12T06:49:44.448Z,6.33
2022-11-12T06:52:32.273Z,5.23
2022-11-12T06:55:18.998Z,5.17
2022-11-12T06:58:05.706Z,10.17
2022-11-12T07:00:52.166Z,5.47
2022-11-12T07:03:39.658Z,5.77
2022-11-12T07:06:26.479Z,5.37
2022-11-12T07:09:14.756Z,4.47
2022-11-12T07:12:01.555Z,4.83
2022-11-12T07:14:48.481Z,4.63
2022-11-12T07:17:35.399Z,4.13
2022-11-12T07:20:22.105Z,5.07
2022-11-12T07:23:08.692Z,4.93
2022-11-12T07:26:02.267Z,6.70
2022-11-12T07:28:50.286Z,5.93
2022-11-12T07:31:36.877Z,4.93
2022-11-12T07:34:23.491Z,5.80
2022-11-12T07:37:10.130Z,6.27
2022-11-12T07:39:57.285Z,5.57
2022-11-12T07:42:45.352Z,5.83
2022-11-12T07:45:32.095Z,7.63
2022-11-12T07:48:18.598Z,14.43
2022-11-12T07:51:08.756Z,7.13
2022-11-12T07:53:59.543Z,5.80
2022-11-12T07:56:46.250Z,7.73
2022-11-12T07:59:34.556Z,6.87
2022-11-12T08:02:21.256Z,7.30
2022-11-12T08:05:14.421Z,6.97
2022-11-12T08:08:04.695Z,9.27
2022-11-12T08:10:56.579Z,8.30
2022-11-12T08:13:43.068Z,6.37
2022-11-12T08:16:31.082Z,4.10
2022-11-12T08:19:17.761Z,5.77
2022-11-12T08:22:04.190Z,5.13
2022-11-12T08:24:50.898Z,4.90
2022-11-12T08:27:37.757Z,7.27
2022-11-12T08:30:24.138Z,8.33
2022-11-12T08:33:12.270Z,5.87
2022-11-12T08:35:59.301Z,6.30
2022-11-12T08:38:46.427Z,4.83
2022-11-12T08:41:33.607Z,9.27
2022-11-12T08:44:20.253Z,5.20
2022-11-12T08:47:06.806Z,5.57
2022-11-12T08:49:54.764Z,6.13
2022-11-12T08:52:41.316Z,5.40
2022-11-12T08:55:27.900Z,5.97
2022-11-12T08:58:14.805Z,8.50
2022-11-12T09:01:06.409Z,6.13
2022-11-12T09:03:53.200Z,7.07
2022-11-12T09:06:41.123Z,5.07
2022-11-12T09:09:28.175Z,5.50
2022-11-12T09:12:19.705Z,5.67
2022-11-12T09:15:36.271Z,4.77
2022-11-12T09:18:16.695Z,6.33
2022-11-12T09:21:05.168Z,8.80
2022-11-12T09:23:53.152Z,6.13
2022-11-12T09:26:39.729Z,7.43
2022-11-12T09:29:26.500Z,6.57
2022-11-12T09:32:13.433Z,6.57
2022-11-12T09:34:59.902Z,6.33
2022-11-12T09:37:46.712Z,6.80
2022-11-12T09:40:46.595Z,7.23
2022-11-12T09:43:35.584Z,6.77
2022-11-12T09:46:30.824Z,6.73
2022-11-12T09:49:20.783Z,6.43
2022-11-12T09:52:15.358Z,5.37
2022-11-12T09:55:09.022Z,11.33
2022-11-12T09:57:57.319Z,5.47
2022-11-12T10:00:55.398Z,6.90
2022-11-12T10:03:53.995Z,6.27
2022-11-12T10:06:47.888Z,5.03
2022-11-12T10:09:43.420Z,7.43
2022-11-12T10:12:37.373Z,6.53
2022-11-12T10:15:57.819Z,5.27
2022-11-12T10:18:55.587Z,5.80
2022-11-12T10:21:52.354Z,10.60
2022-11-12T10:24:41.171Z,6.30
2022-11-12T10:27:36.477Z,5.43
2022-11-12T10:30:25.284Z,5.37
2022-11-12T10:33:16.187Z,6.30
2022-11-12T10:36:21.507Z,5.80
2022-11-12T10:39:08.189Z,8.87
2022-11-12T10:42:04.085Z,6.17
2022-11-12T10:44:51.867Z,7.53
2022-11-12T10:47:42.935Z,6.10
2022-11-12T10:50:36.249Z,7.27
2022-11-12T10:53:34.840Z,5.43
2022-11-12T10:56:31.145Z,5.13
2022-11-12T10:59:18.933Z,5.20
2022-11-12T11:02:19.011Z,6.27
2022-11-12T11:05:36.278Z,6.90
2022-11-12T11:08:51.152Z,4.93
2022-11-12T11:11:37.855Z,6.27
2022-11-12T11:14:32.847Z,5.90
2022-11-12T11:17:20.402Z,4.37
2022-11-12T11:20:17.149Z,8.60
2022-11-12T11:23:11.740Z,5.33
2022-11-12T11:26:04.297Z,5.03
2022-11-12T11:28:59.914Z,8.50
2022-11-12T11:31:54.057Z,5.17
2022-11-12T11:34:47.970Z,5.73
2022-11-12T11:37:46.911Z,5.67
2022-11-12T11:40:39.171Z,5.17
2022-11-12T11:43:50.121Z,6.90
2022-11-12T11:46:51.266Z,5.70
2022-11-12T11:50:08.713Z,4.40
2022-11-12T11:53:08.768Z,3.37
2022-11-12T11:56:03.631Z,5.10
2022-11-12T11:59:06.208Z,6.40
2022-11-12T12:02:12.858Z,3.53
2022-11-12T12:05:09.015Z,5.60
2022-11-12T12:08:03.460Z,5.00
2022-11-12T12:11:13.026Z,4.90
2022-11-12T12:14:14.937Z,4.67
2022-11-12T12:17:11.057Z,4.43
2022-11-12T12:20:07.326Z,5.83
2022-11-12T12:23:00.400Z,2.87
2022-11-12T12:25:49.414Z,6.80
2022-11-12T12:28:42.390Z,10.53
2022-11-12T12:31:36.666Z,4.23
2022-11-12T12:34:27.727Z,4.33
2022-11-12T12:37:23.438Z,4.03
2022-11-12T12:40:18.738Z,3.80
2022-11-12T12:43:13.436Z,3.77
2022-11-12T12:46:00.491Z,4.87
2022-11-12T12:48:51.168Z,3.67
2022-11-12T12:51:38.189Z,9.40
2022-11-12T12:54:56.747Z,5.07
2022-11-12T12:57:43.788Z,4.17
2022-11-12T13:00:35.745Z,6.53
2022-11-12T13:03:52.195Z,3.00
2022-11-12T13:06:40.485Z,7.70
2022-11-12T13:09:28.522Z,3.13
2022-11-12T13:12:24.044Z,4.03
2022-11-12T13:15:16.209Z,3.13
2022-11-12T13:18:02.757Z,4.17
2022-11-12T13:21:12.390Z,2.40
2022-11-12T13:24:10.973Z,3.90
2022-11-12T13:26:59.124Z,5.13
2022-11-12T13:29:47.537Z,3.57
2022-11-12T13:32:37.592Z,4.73
2022-11-12T13:35:34.281Z,4.17
2022-11-12T13:38:22.880Z,4.73
2022-11-12T13:41:17.075Z,4.20
2022-11-12T13:44:07.174Z,5.87
2022-11-12T13:46:56.102Z,7.93
2022-11-12T13:49:43.895Z,3.93
2022-11-12T13:52:30.926Z,6.63
2022-11-12T13:55:20.422Z,5.17
2022-11-12T13:58:19.326Z,3.30
2022-11-12T14:01:07.920Z,3.33
2022-11-12T14:03:55.107Z,127.33
2022-11-12T14:06:45.332Z,69.73
2022-11-12T14:09:49.819Z,26.13
2022-11-12T14:13:00.311Z,13.93
2022-11-12T14:16:01.832Z,10.33
2022-11-12T14:19:07.634Z,8.57
2022-11-12T14:22:14.661Z,6.60
2022-11-12T14:25:02.915Z,5.80
2022-11-12T14:27:51.932Z,4.47
2022-11-12T14:30:44.947Z,4.90
2022-11-12T14:33:33.269Z,4.47
2022-11-12T14:36:20.683Z,3.97
2022-11-12T14:39:08.343Z,3.10
2022-11-12T14:41:57.495Z,2.80
2022-11-12T14:44:45.826Z,2.90
2022-11-12T14:47:32.706Z,3.63
2022-11-12T14:50:23.158Z,4.47
2022-11-12T14:53:20.496Z,4.23
2022-11-12T14:56:17.146Z,3.00
2022-11-12T14:59:04.883Z,3.00
2022-11-12T15:02:29.423Z,4.23
2022-11-12T15:05:18.586Z,3.47
2022-11-12T15:08:09.440Z,3.57
2022-11-12T15:10:56.356Z,2.60
2022-11-12T15:13:46.700Z,2.17
2022-11-12T15:16:35.194Z,3.43
2022-11-12T15:19:25.142Z,4.53
2022-11-12T15:22:20.981Z,11.30
2022-11-12T15:25:13.310Z,11.17
2022-11-12T15:28:14.272Z,11.50
2022-11-12T15:31:02.506Z,8.23
2022-11-12T15:33:49.157Z,11.23
2022-11-12T15:36:37.260Z,16.23
2022-11-12T15:39:27.202Z,15.60
2022-11-12T15:42:17.696Z,15.77
2022-11-12T15:45:12.088Z,13.33
2022-11-12T15:47:58.581Z,13.40
2022-11-12T15:50:46.149Z,19.67
2022-11-12T15:53:34.283Z,16.73
2022-11-12T15:56:22.213Z,15.60
2022-11-12T15:59:10.907Z,13.70
2022-11-12T16:01:57.799Z,15.93
2022-11-12T16:04:44.476Z,16.03
2022-11-12T16:07:31.269Z,14.03
2022-11-12T16:10:20.951Z,15.07
2022-11-12T16:13:12.777Z,15.37
2022-11-12T16:16:08.244Z,14.83
2022-11-12T16:18:55.031Z,16.63
2022-11-12T16:21:41.703Z,15.80
2022-11-12T16:24:28.372Z,12.70
2022-11-12T16:27:18.057Z,8.80
2022-11-12T16:30:05.397Z,7.80
2022-11-12T16:32:52.389Z,7.00
2022-11-12T16:35:39.354Z,7.33
2022-11-12T16:38:26.370Z,7.47
2022-11-12T16:41:15.119Z,8.97
2022-11-12T16:44:03.333Z,8.57
2022-11-12T16:46:49.927Z,8.87
2022-11-12T16:49:38.837Z,10.20
2022-11-12T16:52:25.945Z,8.90
2022-11-12T16:55:13.044Z,9.87
2022-11-12T16:57:59.902Z,13.07
2022-11-12T17:00:51.064Z,17.80
2022-11-12T17:03:37.760Z,21.77
2022-11-12T17:06:32.396Z,20.17
2022-11-12T17:09:19.457Z,13.33
2022-11-12T17:12:06.468Z,11.77
2022-11-12T17:14:53.180Z,8.23
2022-11-12T17:17:41.356Z,17.93
2022-11-12T17:20:28.191Z,22.03
2022-11-12T17:23:14.998Z,34.00
2022-11-12T17:26:02.577Z,44.33
2022-11-12T17:28:53.931Z,38.23
2022-11-12T17:31:44.180Z,32.57
2022-11-12T17:34:32.355Z,28.23
2022-11-12T17:37:19.251Z,21.47
2022-11-12T17:40:07.203Z,19.77
2022-11-12T17:42:54.089Z,16.00
2022-11-12T17:45:50.734Z,14.80
2022-11-12T17:48:38.524Z,13.23
2022-11-12T17:51:28.248Z,14.20
2022-11-12T17:54:15.249Z,15.43
2022-11-12T17:57:02.098Z,13.87
2022-11-12T17:59:48.690Z,13.00
2022-11-12T18:02:35.511Z,13.97
2022-11-12T18:05:21.864Z,13.50
2022-11-12T18:08:10.014Z,13.13
2022-11-12T18:10:56.961Z,11.47
2022-11-12T18:13:43.447Z,9.63
2022-11-12T18:16:30.617Z,9.10
2022-11-12T18:19:17.321Z,8.73
2022-11-12T18:22:04.184Z,9.20
2022-11-12T18:24:52.819Z,8.80
2022-11-12T18:27:39.467Z,11.30
2022-11-12T18:30:26.229Z,12.90
2022-11-12T18:33:13.687Z,13.00
2022-11-12T18:36:04.164Z,11.83
2022-11-12T18:38:52.414Z,8.93
2022-11-12T18:41:44.042Z,10.47
2022-11-12T18:44:30.809Z,7.97
2022-11-12T18:47:17.362Z,6.70
2022-11-12T18:50:08.642Z,10.40
2022-11-12T18:52:56.110Z,11.40
2022-11-12T18:55:42.601Z,11.93
2022-11-12T18:58:35.185Z,11.17
2022-11-12T19:01:24.320Z,11.07
2022-11-12T19:04:12.221Z,11.13
2022-11-12T19:06:59.331Z,10.07
2022-11-12T19:09:46.463Z,9.40
2022-11-12T19:12:33.136Z,9.40
2022-11-12T19:15:25.628Z,8.50
2022-11-12T19:18:13.624Z,8.10
2022-11-12T19:21:04.376Z,8.83
2022-11-12T19:23:54.274Z,8.43
2022-11-12T19:26:41.684Z,8.87
2022-11-12T19:29:28.308Z,11.70
2022-11-12T19:32:16.814Z,11.00
2022-11-12T19:35:03.894Z,10.20
2022-11-12T19:37:50.627Z,9.80
2022-11-12T19:40:37.835Z,9.70
2022-11-12T19:43:25.002Z,11.60
2022-11-12T19:46:12.570Z,11.13
2022-11-12T19:49:00.715Z,15.83
2022-11-12T19:51:47.378Z,13.57
2022-11-12T19:54:33.973Z,14.87
2022-11-12T19:57:21.173Z,18.20
2022-11-12T20:00:10.805Z,19.17
2022-11-12T20:02:59.079Z,15.17
2022-11-12T20:05:46.990Z,15.67
2022-11-12T20:08:33.739Z,17.07
2022-11-12T20:11:20.394Z,17.90
2022-11-12T20:14:07.011Z,14.77
2022-11-12T20:16:53.504Z,14.73
2022-11-12T20:19:40.044Z,15.80
2022-11-12T20:22:32.065Z,14.87
2022-11-12T20:25:19.143Z,13.23
2022-11-12T20:28:06.122Z,14.40
2022-11-12T20:30:52.638Z,14.70
2022-11-12T20:33:42.538Z,14.10
2022-11-12T20:36:31.157Z,12.60
2022-11-12T20:39:19.009Z,11.77
2022-11-12T20:42:05.643Z,12.10
2022-11-12T20:44:52.811Z,11.17
2022-11-12T20:47:39.961Z,12.87
2022-11-12T20:50:26.458Z,13.63
2022-11-12T20:53:13.475Z,16.17
2022-11-12T20:56:08.263Z,14.50
2022-11-12T20:58:55.384Z,15.57
2022-11-12T21:01:42.209Z,15.03
2022-11-12T21:04:28.842Z,15.77
2022-11-12T21:07:15.853Z,15.07
2022-11-12T21:10:02.714Z,12.40
2022-11-12T21:12:50.869Z,14.87
2022-11-12T21:15:37.307Z,13.87
2022-11-12T21:18:26.544Z,13.07
2022-11-12T21:21:15.336Z,14.00
2022-11-12T21:24:05.095Z,14.30
2022-11-12T21:26:52.380Z,13.40
2022-11-12T21:29:40.373Z,12.27
2022-11-12T21:32:27.275Z,14.77
2022-11-12T21:35:13.683Z,11.73
2022-11-12T21:38:00.427Z,10.70
2022-11-12T21:40:47.348Z,11.70
2022-11-12T21:43:36.927Z,10.80
2022-11-12T21:46:26.452Z,12.30
2022-11-12T21:49:13.076Z,11.00
2022-11-12T21:51:59.532Z,11.43
2022-11-12T21:54:46.259Z,12.00
2022-11-12T21:57:33.150Z,12.07
2022-11-12T22:00:40.955Z,12.33
2022-11-12T22:03:31.228Z,11.00
2022-11-12T22:06:19.561Z,12.47
2022-11-12T22:09:06.338Z,11.93
2022-11-12T22:11:52.899Z,13.37
2022-11-12T22:14:39.636Z,11.33
2022-11-12T22:17:26.010Z,10.97
2022-11-12T22:20:14.023Z,11.73
2022-11-12T22:23:00.911Z,10.97
2022-11-12T22:25:48.444Z,11.83
2022-11-12T22:28:35.404Z,10.93
2022-11-12T22:31:24.025Z,9.43
2022-11-12T22:34:10.984Z,10.90
2022-11-12T22:36:58.864Z,10.23
2022-11-12T22:39:45.725Z,10.00
2022-11-12T22:42:32.571Z,11.37
2022-11-12T22:45:19.103Z,10.70
2022-11-12T22:48:06.739Z,10.50
2022-11-12T22:50:59.828Z,10.53
2022-11-12T22:53:48.761Z,9.77
2022-11-12T22:56:35.461Z,10.40
2022-11-12T22:59:22.105Z,10.80
2022-11-12T23:02:08.619Z,9.90
2022-11-12T23:04:55.573Z,9.57
2022-11-12T23:07:42.311Z,12.23
2022-11-12T23:10:31.938Z,12.00
2022-11-12T23:13:18.742Z,15.20
2022-11-12T23:16:07.799Z,14.07
2022-11-12T23:18:55.024Z,14.30
2022-11-12T23:21:41.832Z,15.67
2022-11-12T23:24:28.312Z,14.90
2022-11-12T23:27:16.364Z,15.43
2022-11-12T23:30:03.109Z,15.00
2022-11-12T23:32:49.585Z,14.43
2022-11-12T23:35:36.143Z,13.87
2022-11-12T23:38:22.828Z,14.43
2022-11-12T23:41:11.106Z,14.37
2022-11-12T23:43:59.434Z,12.10
2022-11-12T23:46:45.841Z,12.90
2022-11-12T23:49:32.917Z,11.67
2022-11-12T23:52:19.497Z,13.93
2022-11-12T23:55:06.539Z,11.57
2022-11-12T23:57:53.818Z,11.80
